Time;durP1;ratioP1;P1;durP2;ratioP2;P2;SDS_P1;SDS_P2;PMS_P1;PMS_P2;Temp;Humidity;BMP_temperature;BMP_pressure;BME280_temperature;BME280_humidity;BME280_pressure;Samples;Min_cycle;Max_cycle;Signal;HPM_P1;HPM_P2
2021/07/25 00:02:14;;;;;;;35.17;24.33;;;20.70;99.90;;;;;;5056795;28;20225;-76
2021/07/25 00:04:42;;;;;;;32.00;20.85;;;20.70;99.90;;;;;;5055874;28;20237;-77
2021/07/25 00:07:09;;;;;;;35.40;22.20;;;20.60;99.90;;;;;;5055030;28;20251;-76
2021/07/25 00:09:36;;;;;;;34.22;22.08;;;20.60;99.90;;;;;;5054843;28;20202;-77
2021/07/25 00:12:05;;;;;;;35.85;22.45;;;20.60;99.90;;;;;;5060070;28;20260;-76
2021/07/25 00:14:32;;;;;;;35.92;21.75;;;20.60;99.90;;;;;;5055961;28;20617;-77
2021/07/25 00:16:59;;;;;;;40.55;24.58;;;20.50;99.90;;;;;;5061735;28;20194;-76
2021/07/25 00:19:26;;;;;;;34.88;23.75;;;20.50;99.90;;;;;;5067211;28;20205;-76
2021/07/25 00:21:55;;;;;;;36.60;24.02;;;20.40;99.90;;;;;;5059190;28;20319;-76
2021/07/25 00:24:28;;;;;;;37.13;23.25;;;20.40;99.90;;;;;;5053787;28;20727;-76
2021/07/25 00:26:58;;;;;;;35.78;22.15;;;20.40;99.90;;;;;;5061403;28;20288;-77
2021/07/25 00:29:25;;;;;;;33.35;22.90;;;20.40;99.90;;;;;;5055313;28;20198;-76
2021/07/25 00:31:52;;;;;;;35.38;23.63;;;20.40;99.90;;;;;;5058279;28;20638;-77
2021/07/25 00:34:19;;;;;;;37.72;21.55;;;20.40;99.90;;;;;;5049376;28;20194;-77
2021/07/25 00:36:53;;;;;;;37.03;23.23;;;20.40;99.90;;;;;;5048673;28;20203;-77
2021/07/25 00:39:22;;;;;;;32.72;23.45;;;20.30;99.90;;;;;;5054477;28;20202;-77
2021/07/25 00:41:49;;;;;;;35.55;23.67;;;20.40;99.90;;;;;;5048864;28;20221;-77
2021/07/25 00:47:00;;;;;;;31.60;22.83;;;20.30;99.90;;;;;;5066126;28;20224;-77
2021/07/25 00:49:28;;;;;;;37.53;23.45;;;20.30;99.90;;;;;;5050687;28;20202;-77
2021/07/25 00:51:55;;;;;;;32.20;22.45;;;20.30;99.90;;;;;;5064947;28;20572;-77
2021/07/25 00:59:53;;;;;;;36.92;24.05;;;20.30;99.90;;;;;;5054975;28;20211;-77
2021/07/25 01:02:20;;;;;;;39.13;22.40;;;20.30;99.90;;;;;;5056081;28;20205;-77
2021/07/25 01:04:52;;;;;;;33.33;22.17;;;20.20;99.90;;;;;;5054072;28;20288;-77
2021/07/25 01:07:27;;;;;;;36.13;23.20;;;20.30;99.90;;;;;;5059857;28;20241;-77
2021/07/25 01:12:44;;;;;;;36.30;24.48;;;20.30;99.90;;;;;;5053302;28;20213;-77
2021/07/25 01:15:18;;;;;;;38.05;23.45;;;20.20;99.90;;;;;;5061139;28;20259;-77
2021/07/25 01:17:48;;;;;;;33.78;22.08;;;20.20;99.90;;;;;;5059583;28;20206;-77
2021/07/25 01:20:17;;;;;;;34.25;21.42;;;20.30;99.90;;;;;;5057306;28;20191;-77
2021/07/25 01:22:46;;;;;;;34.90;23.15;;;20.30;99.90;;;;;;5054384;28;20224;-76
2021/07/25 01:25:15;;;;;;;34.95;22.25;;;20.30;99.90;;;;;;5048627;28;20229;-77
2021/07/25 01:27:46;;;;;;;38.28;23.70;;;20.30;99.90;;;;;;5053506;28;20226;-76
2021/07/25 01:30:18;;;;;;;35.42;23.95;;;20.20;99.90;;;;;;5052826;28;20205;-77
2021/07/25 01:32:46;;;;;;;39.30;24.48;;;20.20;99.90;;;;;;5053842;28;20225;-76
2021/07/25 01:35:16;;;;;;;34.78;20.65;;;20.20;99.90;;;;;;5049058;28;20226;-77
2021/07/25 01:37:44;;;;;;;34.92;21.92;;;20.20;99.90;;;;;;5063061;28;20201;-77
2021/07/25 01:40:13;;;;;;;34.13;20.52;;;20.20;99.90;;;;;;5055808;28;20202;-77
2021/07/25 01:42:40;;;;;;;34.75;23.55;;;20.20;99.90;;;;;;5054395;28;20272;-77
2021/07/25 01:45:07;;;;;;;34.75;22.40;;;20.10;99.90;;;;;;5048253;28;20206;-77
2021/07/25 01:47:35;;;;;;;35.40;21.88;;;20.10;99.90;;;;;;5047347;28;20230;-76
2021/07/25 01:50:02;;;;;;;35.92;21.63;;;20.10;99.90;;;;;;5054034;28;20229;-77
2021/07/25 01:52:30;;;;;;;31.58;21.77;;;20.10;99.90;;;;;;5059879;28;20205;-77
2021/07/25 01:54:57;;;;;;;31.40;20.88;;;20.00;99.90;;;;;;5052349;28;20225;-77
2021/07/25 01:57:24;;;;;;;30.98;21.60;;;20.10;99.90;;;;;;5053249;28;20229;-77
2021/07/25 01:59:51;;;;;;;35.08;19.48;;;20.10;99.90;;;;;;5060712;28;20232;-77
2021/07/25 02:02:18;;;;;;;32.20;20.33;;;20.00;99.90;;;;;;5061592;28;20640;-77
2021/07/25 02:04:45;;;;;;;35.58;20.73;;;20.00;99.90;;;;;;5059940;28;20229;-77
2021/07/25 02:07:12;;;;;;;31.00;20.55;;;20.00;99.90;;;;;;5049930;28;20202;-76
2021/07/25 02:09:41;;;;;;;33.22;20.10;;;20.00;99.90;;;;;;5051474;28;20260;-76
2021/07/25 02:12:09;;;;;;;30.77;20.65;;;19.90;99.90;;;;;;5050055;28;20202;-77
2021/07/25 02:14:37;;;;;;;33.42;20.88;;;19.80;99.90;;;;;;5053191;28;20205;-77
2021/07/25 02:17:04;;;;;;;30.02;20.90;;;19.80;99.90;;;;;;5050041;28;20227;-77
2021/07/25 02:19:31;;;;;;;29.85;20.08;;;19.80;99.90;;;;;;5047297;28;20194;-76
2021/07/25 02:21:58;;;;;;;34.45;20.77;;;19.80;99.90;;;;;;5057310;28;20206;-76
2021/07/25 02:24:25;;;;;;;30.20;21.15;;;19.70;99.90;;;;;;5051040;28;20198;-77
2021/07/25 02:26:54;;;;;;;31.02;20.27;;;19.60;99.90;;;;;;5052786;28;20228;-76
2021/07/25 02:29:21;;;;;;;32.13;21.10;;;19.50;99.90;;;;;;5056291;28;20287;-77
2021/07/25 02:31:48;;;;;;;27.95;20.00;;;19.50;99.90;;;;;;5064670;28;20229;-76
2021/07/25 02:34:15;;;;;;;31.20;21.30;;;19.50;99.90;;;;;;5055932;28;20617;-76
2021/07/25 02:36:42;;;;;;;29.98;19.95;;;19.50;99.90;;;;;;5061707;28;20213;-76
2021/07/25 02:39:09;;;;;;;32.63;20.42;;;19.50;99.90;;;;;;5051741;28;20198;-76
2021/07/25 02:41:38;;;;;;;33.70;21.05;;;19.50;99.90;;;;;;5047582;28;20195;-76
2021/07/25 02:44:06;;;;;;;34.28;20.90;;;19.50;99.90;;;;;;5052790;28;20202;-76
2021/07/25 02:46:33;;;;;;;32.85;21.42;;;19.50;99.90;;;;;;5050056;28;20233;-76
2021/07/25 02:49:00;;;;;;;31.70;20.00;;;19.50;99.90;;;;;;5065672;28;20284;-76
2021/07/25 02:51:27;;;;;;;29.60;18.63;;;19.50;99.90;;;;;;5061773;28;20202;-76
2021/07/25 02:53:54;;;;;;;33.20;20.25;;;19.40;99.90;;;;;;5053729;28;20229;-75
2021/07/25 02:56:21;;;;;;;34.88;21.98;;;19.40;99.90;;;;;;5052258;28;20221;-74
2021/07/25 02:58:48;;;;;;;30.23;20.98;;;19.40;99.90;;;;;;5062008;28;20224;-76
2021/07/25 03:01:17;;;;;;;34.20;20.25;;;19.40;99.90;;;;;;5054529;28;20202;-76
2021/07/25 03:03:45;;;;;;;33.75;19.52;;;19.30;99.90;;;;;;5054782;28;20697;-76
2021/07/25 03:06:12;;;;;;;33.15;21.02;;;19.40;99.90;;;;;;5057722;28;20233;-76
2021/07/25 03:08:39;;;;;;;38.25;20.17;;;19.30;99.90;;;;;;5055740;28;20226;-77
2021/07/25 03:11:08;;;;;;;27.13;18.13;;;19.30;99.90;;;;;;5056313;28;20198;-76
2021/07/25 03:13:38;;;;;;;25.88;17.27;;;19.20;99.90;;;;;;5053429;28;20266;-76
2021/07/25 03:16:08;;;;;;;27.25;17.90;;;19.20;99.90;;;;;;5056053;28;20239;-76
2021/07/25 03:18:36;;;;;;;30.33;19.38;;;19.10;99.90;;;;;;5054239;28;20213;-75
2021/07/25 03:21:05;;;;;;;30.83;20.20;;;19.10;99.90;;;;;;5055023;28;20210;-76
2021/07/25 03:23:32;;;;;;;31.85;19.80;;;19.10;99.90;;;;;;5054134;28;20202;-76
2021/07/25 03:28:48;;;;;;;32.47;20.25;;;19.00;99.90;;;;;;5049501;28;20226;-75
2021/07/25 03:31:18;;;;;;;32.78;19.85;;;19.00;99.90;;;;;;5060762;28;20204;-76
2021/07/25 03:33:46;;;;;;;34.10;20.00;;;19.00;99.90;;;;;;5054278;28;20202;-76
2021/07/25 03:36:13;;;;;;;33.45;20.70;;;19.00;99.90;;;;;;5060240;28;20199;-76
2021/07/25 03:41:23;;;;;;;29.10;19.88;;;19.00;99.90;;;;;;5059668;28;20317;-76
2021/07/25 03:43:50;;;;;;;30.67;20.15;;;19.00;99.90;;;;;;5057366;28;20228;-76
2021/07/25 03:49:00;;;;;;;30.92;19.92;;;19.00;99.90;;;;;;5057343;28;20709;-75
2021/07/25 03:51:27;;;;;;;29.33;19.17;;;19.00;99.90;;;;;;5052373;28;20206;-75
2021/07/25 03:53:54;;;;;;;29.85;20.50;;;19.00;99.90;;;;;;5062243;28;20263;-75
2021/07/25 03:56:22;;;;;;;32.10;19.90;;;19.00;99.90;;;;;;5054885;28;20257;-75
2021/07/25 03:58:49;;;;;;;35.78;20.88;;;19.00;99.90;;;;;;5061584;28;20241;-75
2021/07/25 04:04:04;;;;;;;33.45;21.20;;;18.90;99.90;;;;;;5058207;28;20296;-76
2021/07/25 04:06:47;;;;;;;40.00;20.65;;;19.00;99.90;;;;;;5061089;28;20259;-76
2021/07/25 04:09:15;;;;;;;32.08;20.65;;;19.00;99.90;;;;;;5049964;28;20248;-76
2021/07/25 04:11:42;;;;;;;35.13;21.48;;;19.00;99.90;;;;;;5055476;28;20232;-76
2021/07/25 04:14:13;;;;;;;33.75;20.80;;;19.00;99.90;;;;;;5063457;28;20210;-76
2021/07/25 04:27:26;;;;;;;32.35;21.08;;;19.20;99.90;;;;;;5054795;28;20205;-76
2021/07/25 04:29:54;;;;;;;31.65;20.35;;;19.20;99.90;;;;;;5057355;28;20226;-75
2021/07/25 04:32:22;;;;;;;34.60;20.83;;;19.30;99.90;;;;;;5055178;28;20194;-76
2021/07/25 04:37:34;;;;;;;33.13;21.40;;;19.20;99.90;;;;;;5059088;28;20676;-75
2021/07/25 04:40:01;;;;;;;35.15;21.50;;;19.20;99.90;;;;;;5056100;28;20266;-75
2021/07/25 04:42:32;;;;;;;32.08;20.63;;;19.30;99.90;;;;;;5054897;28;20206;-75
2021/07/25 04:45:05;;;;;;;36.55;22.33;;;19.20;99.90;;;;;;5060364;28;20264;-75
2021/07/25 04:47:36;;;;;;;30.77;20.65;;;19.20;99.90;;;;;;5048399;28;20293;-75
2021/07/25 04:50:08;;;;;;;40.30;23.38;;;19.20;99.90;;;;;;5052071;28;20230;-75
2021/07/25 04:52:41;;;;;;;34.50;21.77;;;19.20;99.90;;;;;;5047894;28;20224;-75
2021/07/25 04:55:12;;;;;;;37.47;22.95;;;19.20;99.90;;;;;;5056286;28;20213;-75
2021/07/25 04:57:44;;;;;;;54.85;22.00;;;19.30;99.90;;;;;;5054201;28;20206;-75
2021/07/25 05:00:14;;;;;;;38.17;22.85;;;19.30;99.90;;;;;;5055564;28;20230;-75
2021/07/25 05:02:43;;;;;;;36.80;22.42;;;19.30;99.90;;;;;;5048842;28;20209;-75
2021/07/25 05:05:12;;;;;;;39.22;22.17;;;19.30;99.90;;;;;;5051647;28;20295;-75
2021/07/25 05:07:41;;;;;;;35.90;20.77;;;19.30;99.90;;;;;;5052549;28;20203;-75
2021/07/25 05:10:11;;;;;;;39.15;21.60;;;19.30;99.90;;;;;;5060913;28;20230;-75
2021/07/25 05:12:45;;;;;;;32.28;19.05;;;19.30;99.90;;;;;;5049073;28;20263;-75
2021/07/25 05:15:16;;;;;;;31.80;20.15;;;19.40;99.90;;;;;;5061332;28;20229;-75
2021/07/25 05:17:46;;;;;;;29.05;20.45;;;19.40;99.90;;;;;;5061835;28;20210;-76
2021/07/25 05:20:17;;;;;;;26.55;17.88;;;19.40;99.90;;;;;;5055411;28;20202;-75
2021/07/25 05:22:54;;;;;;;33.08;18.63;;;19.40;99.90;;;;;;5059187;28;20205;-75
2021/07/25 05:25:23;;;;;;;33.90;17.60;;;19.40;99.90;;;;;;5053028;28;20270;-75
2021/07/25 05:27:53;;;;;;;27.23;17.83;;;19.40;99.90;;;;;;5060090;28;20297;-75
2021/07/25 05:30:21;;;;;;;31.27;18.05;;;19.40;99.90;;;;;;5048340;28;20230;-76
2021/07/25 05:32:52;;;;;;;25.05;16.92;;;19.40;99.90;;;;;;5047071;28;20206;-76
2021/07/25 05:35:19;;;;;;;29.10;17.17;;;19.40;99.90;;;;;;5055648;28;20203;-76
2021/07/25 05:37:48;;;;;;;25.60;17.13;;;19.40;99.90;;;;;;5053592;28;20203;-75
2021/07/25 05:40:17;;;;;;;24.98;17.20;;;19.40;99.90;;;;;;5054675;28;20206;-76
2021/07/25 05:42:44;;;;;;;26.10;17.85;;;19.40;99.90;;;;;;5060085;28;20232;-75
2021/07/25 05:45:14;;;;;;;23.48;15.32;;;19.40;99.90;;;;;;5048371;28;20199;-75
2021/07/25 05:47:41;;;;;;;19.90;14.70;;;19.40;99.90;;;;;;5048990;28;20198;-75
2021/07/25 05:50:13;;;;;;;22.52;15.38;;;19.40;99.90;;;;;;5053471;28;20675;-76
2021/07/25 05:52:45;;;;;;;24.00;16.10;;;19.40;99.90;;;;;;5056980;28;20210;-76
2021/07/25 05:55:13;;;;;;;25.48;14.93;;;19.50;99.90;;;;;;5047309;28;20237;-75
2021/07/25 05:57:48;;;;;;;18.55;13.93;;;19.50;99.90;;;;;;5064035;28;20263;-76
2021/07/25 06:00:16;;;;;;;26.17;15.30;;;19.60;99.90;;;;;;5049303;28;20236;-76
2021/07/25 06:08:20;;;;;;;19.75;13.95;;;19.90;99.90;;;;;;5052449;28;20202;-76
2021/07/25 06:13:29;;;;;;;21.23;13.55;;;19.90;99.90;;;;;;5052572;28;20462;-76
2021/07/25 06:15:56;;;;;;;17.92;12.52;;;19.90;99.90;;;;;;5053785;28;20203;-75
2021/07/25 06:21:04;;;;;;;19.40;12.25;;;20.10;99.90;;;;;;5054395;28;20665;-73
2021/07/25 06:23:30;;;;;;;18.80;12.55;;;20.20;99.90;;;;;;5058919;28;20251;-75
2021/07/25 06:25:59;;;;;;;20.35;12.18;;;20.30;99.90;;;;;;5062989;28;20253;-75
2021/07/25 06:28:26;;;;;;;16.90;11.40;;;20.50;99.90;;;;;;5063803;28;20197;-75
2021/07/25 06:30:53;;;;;;;20.55;11.63;;;20.70;99.90;;;;;;5063039;28;20202;-75
2021/07/25 06:33:19;;;;;;;15.98;10.85;;;20.90;99.90;;;;;;5056219;28;20225;-75
2021/07/25 06:35:46;;;;;;;18.25;11.40;;;21.10;99.90;;;;;;5058214;28;20224;-76
2021/07/25 06:38:15;;;;;;;14.73;11.00;;;21.30;99.90;;;;;;5053824;28;20206;-75
2021/07/25 06:40:46;;;;;;;16.48;9.63;;;21.50;99.90;;;;;;5061312;28;20202;-76
2021/07/25 06:43:14;;;;;;;12.15;9.93;;;21.80;99.90;;;;;;5064564;28;20259;-74
2021/07/25 06:45:42;;;;;;;13.25;9.82;;;22.00;99.90;;;;;;5068658;28;20205;-74
2021/07/25 06:48:19;;;;;;;12.95;9.32;;;22.20;99.90;;;;;;5059157;28;20198;-74
2021/07/25 06:50:48;;;;;;;14.43;9.50;;;22.40;99.90;;;;;;5059112;28;20235;-74
2021/07/25 06:53:15;;;;;;;10.30;8.20;;;22.50;99.90;;;;;;5062215;28;20280;-74
2021/07/25 06:55:44;;;;;;;13.75;8.05;;;22.60;99.90;;;;;;5065523;28;20233;-74
2021/07/25 06:58:12;;;;;;;9.82;7.28;;;22.80;99.90;;;;;;5055544;28;20236;-74
2021/07/25 07:00:40;;;;;;;13.27;8.00;;;23.10;99.90;;;;;;5062334;28;20228;-73
2021/07/25 07:03:07;;;;;;;12.32;7.15;;;23.30;99.90;;;;;;5057130;28;20242;-74
2021/07/25 07:05:35;;;;;;;13.95;6.72;;;23.60;99.90;;;;;;5063686;28;20243;-74
2021/07/25 07:08:03;;;;;;;10.27;7.70;;;23.80;99.90;;;;;;5061601;28;20235;-74
2021/07/25 07:10:32;;;;;;;9.15;6.47;;;24.00;99.90;;;;;;5057366;28;20234;-74
2021/07/25 07:13:02;;;;;;;11.45;6.07;;;24.20;99.90;;;;;;5062759;28;20228;-74
2021/07/25 07:15:30;;;;;;;8.38;6.47;;;24.40;99.90;;;;;;5057015;28;20508;-74
2021/07/25 07:17:59;;;;;;;11.90;6.43;;;24.60;99.90;;;;;;5063007;28;20495;-74
2021/07/25 07:20:29;;;;;;;14.63;7.50;;;24.80;99.90;;;;;;5051432;28;20457;-74
2021/07/25 07:23:04;;;;;;;6.80;5.70;;;24.90;99.90;;;;;;5055989;28;20552;-74
2021/07/25 07:26:14;;;;;;;8.50;6.07;;;25.10;99.90;;;;;;5039504;28;20209;-74
2021/07/25 07:28:49;;;;;;;7.60;6.13;;;25.30;99.90;;;;;;5037110;28;20218;-74
2021/07/25 07:31:18;;;;;;;11.60;5.55;;;25.50;99.90;;;;;;5045326;28;20210;-74
2021/07/25 07:33:46;;;;;;;9.02;5.80;;;25.60;99.90;;;;;;5032429;28;20226;-74
2021/07/25 07:36:13;;;;;;;12.82;5.82;;;25.70;99.90;;;;;;5040036;28;20199;-74
2021/07/25 07:38:40;;;;;;;8.15;5.40;;;25.70;99.90;;;;;;5042346;28;20219;-74
2021/07/25 07:41:07;;;;;;;13.77;5.30;;;25.80;99.90;;;;;;5039321;28;20198;-74
2021/07/25 07:43:34;;;;;;;9.38;5.55;;;26.10;99.90;;;;;;5030204;28;20203;-74
2021/07/25 07:46:01;;;;;;;8.35;5.13;;;26.30;99.90;;;;;;5050475;28;20210;-74
2021/07/25 07:48:28;;;;;;;8.63;5.35;;;26.30;99.90;;;;;;5053537;28;20264;-74
2021/07/25 07:50:56;;;;;;;9.32;5.35;;;26.30;99.90;;;;;;5054705;28;20293;-74
2021/07/25 07:53:24;;;;;;;8.70;5.07;;;26.30;99.90;;;;;;5049691;28;20207;-74
2021/07/25 07:55:51;;;;;;;9.57;5.60;;;26.30;99.90;;;;;;5051894;28;20596;-75
2021/07/25 07:58:18;;;;;;;7.25;5.05;;;26.40;99.90;;;;;;5040886;28;20202;-76
2021/07/25 08:00:45;;;;;;;9.80;5.85;;;26.60;99.90;;;;;;5031438;28;20202;-75
2021/07/25 08:03:12;;;;;;;9.88;5.40;;;26.80;99.90;;;;;;5036060;28;20334;-76
2021/07/25 08:05:39;;;;;;;7.90;4.70;;;26.90;99.90;;;;;;5035655;28;20207;-76
2021/07/25 08:08:07;;;;;;;13.80;5.55;;;27.00;99.90;;;;;;5034136;28;20225;-76
2021/07/25 08:10:34;;;;;;;9.88;5.43;;;27.10;99.90;;;;;;5045516;28;20226;-76
2021/07/25 08:13:01;;;;;;;10.70;4.85;;;27.20;99.90;;;;;;5043504;28;20301;-76
2021/07/25 08:15:28;;;;;;;6.18;4.40;;;27.30;99.90;;;;;;5042822;28;20225;-76
2021/07/25 08:17:55;;;;;;;7.18;4.97;;;27.40;99.90;;;;;;5038136;28;20261;-75
2021/07/25 08:20:22;;;;;;;4.78;4.28;;;27.40;99.90;;;;;;5035362;28;20199;-75
2021/07/25 08:22:49;;;;;;;7.45;5.20;;;27.50;99.90;;;;;;5041700;28;20203;-73
2021/07/25 08:25:18;;;;;;;7.65;4.95;;;27.70;99.90;;;;;;5031947;28;20776;-73
2021/07/25 08:27:45;;;;;;;6.90;5.22;;;27.60;99.90;;;;;;5033145;28;20206;-74
2021/07/25 08:30:12;;;;;;;6.57;4.72;;;27.70;99.90;;;;;;5039196;28;20288;-74
2021/07/25 08:32:39;;;;;;;6.22;4.65;;;27.80;99.90;;;;;;5032803;28;20226;-74
2021/07/25 08:35:07;;;;;;;10.40;4.55;;;28.00;99.90;;;;;;5041778;28;20207;-74
2021/07/25 08:37:34;;;;;;;5.57;4.32;;;28.20;99.90;;;;;;5039055;28;20619;-75
2021/07/25 08:40:02;;;;;;;8.02;4.78;;;28.30;99.90;;;;;;5038571;28;20277;-75
2021/07/25 08:42:36;;;;;;;10.90;4.93;;;28.40;99.90;;;;;;5033162;28;20270;-73
2021/07/25 08:45:04;;;;;;;5.90;4.25;;;28.50;99.90;;;;;;5035643;28;20205;-74
2021/07/25 08:47:39;;;;;;;7.10;4.03;;;28.60;99.90;;;;;;5037772;28;20198;-76
2021/07/25 08:50:13;;;;;;;6.53;4.57;;;28.80;99.90;;;;;;5035393;28;20222;-76
2021/07/25 08:52:41;;;;;;;6.63;3.85;;;28.80;99.90;;;;;;5034157;28;21521;-76
2021/07/25 08:55:11;;;;;;;4.43;3.67;;;28.90;99.90;;;;;;5045893;28;20256;-75
2021/07/25 08:57:41;;;;;;;7.05;4.88;;;29.10;99.90;;;;;;5040645;28;20206;-74
2021/07/25 09:00:10;;;;;;;10.45;4.50;;;29.30;99.90;;;;;;5035383;28;20202;-75
2021/07/25 09:02:38;;;;;;;8.98;4.28;;;29.30;99.90;;;;;;5033005;28;20231;-74
2021/07/25 09:05:07;;;;;;;9.73;3.60;;;29.50;99.90;;;;;;5034119;28;20203;-74
2021/07/25 09:07:34;;;;;;;6.13;3.80;;;29.70;99.90;;;;;;5028680;28;20289;-74
2021/07/25 09:10:04;;;;;;;6.57;4.00;;;29.80;99.90;;;;;;5039528;28;20256;-74
2021/07/25 09:12:32;;;;;;;7.00;3.70;;;29.60;99.90;;;;;;5037518;28;20230;-75
2021/07/25 09:15:06;;;;;;;4.78;3.92;;;29.70;99.90;;;;;;5027808;28;20203;-74
2021/07/25 09:17:33;;;;;;;7.35;3.33;;;30.00;99.90;;;;;;5040342;28;20226;-74
2021/07/25 09:20:21;;;;;;;5.70;3.42;;;29.90;99.90;;;;;;5030596;28;20734;-74
2021/07/25 09:23:01;;;;;;;4.85;2.83;;;29.70;99.90;;;;;;5034947;28;20240;-75
2021/07/25 09:25:33;;;;;;;9.93;2.95;;;29.60;99.90;;;;;;5036211;28;20229;-75
2021/07/25 09:28:32;;;;;;;7.15;3.55;;;29.70;99.90;;;;;;5035185;28;20195;-75
2021/07/25 09:31:12;;;;;;;4.28;2.90;;;29.70;99.90;;;;;;5031049;28;20222;-75
2021/07/25 09:33:43;;;;;;;3.58;2.97;;;29.80;99.90;;;;;;5035452;28;20211;-74
2021/07/25 09:36:12;;;;;;;4.88;2.55;;;29.70;99.90;;;;;;5036604;28;20199;-75
2021/07/25 09:38:42;;;;;;;4.18;2.97;;;29.80;99.90;;;;;;5028161;28;20207;-75
2021/07/25 09:41:16;;;;;;;6.88;4.05;;;29.70;99.90;;;;;;5032476;28;20206;-75
2021/07/25 09:43:44;;;;;;;6.18;3.67;;;29.70;99.90;;;;;;5033033;28;20261;-75
2021/07/25 09:46:13;;;;;;;4.43;3.00;;;29.70;99.90;;;;;;5031223;28;20199;-74
2021/07/25 09:48:40;;;;;;;8.55;3.30;;;29.90;99.90;;;;;;5032588;28;20237;-75
2021/07/25 09:51:22;;;;;;;4.90;3.15;;;29.90;99.90;;;;;;5030613;28;20223;-75
2021/07/25 09:53:51;;;;;;;4.97;3.58;;;30.20;99.90;;;;;;5033149;28;20206;-75
2021/07/25 09:56:20;;;;;;;7.53;3.38;;;30.20;99.90;;;;;;5030284;28;20198;-75
2021/07/25 09:58:47;;;;;;;10.50;3.22;;;30.30;99.90;;;;;;5037720;28;20230;-75
2021/07/25 10:11:33;;;;;;;4.10;3.05;;;30.30;99.90;;;;;;5087467;28;20240;-75
2021/07/25 10:14:01;;;;;;;6.43;3.22;;;30.30;99.90;;;;;;5086990;28;20230;-75
2021/07/25 10:16:28;;;;;;;4.50;3.00;;;30.40;99.90;;;;;;5085806;28;20197;-75
2021/07/25 10:18:58;;;;;;;4.38;2.88;;;30.40;99.90;;;;;;5082773;28;20277;-75
2021/07/25 10:21:25;;;;;;;4.45;2.83;;;30.50;99.90;;;;;;5087768;28;20268;-74
2021/07/25 10:23:56;;;;;;;3.67;2.67;;;30.60;99.90;;;;;;5082182;28;20233;-75
2021/07/25 10:26:26;;;;;;;5.53;2.90;;;30.90;99.90;;;;;;5088969;28;20229;-74
2021/07/25 10:28:56;;;;;;;5.53;3.50;;;31.20;99.90;;;;;;5089261;28;20269;-75
2021/07/25 10:31:25;;;;;;;4.80;3.17;;;31.20;99.90;;;;;;5088935;28;20219;-74
2021/07/25 10:33:52;;;;;;;5.72;2.85;;;31.20;99.90;;;;;;5082016;28;20209;-75
2021/07/25 10:36:21;;;;;;;6.63;2.35;;;31.20;99.90;;;;;;5089083;28;20231;-75
2021/07/25 10:38:48;;;;;;;3.03;2.55;;;31.20;99.90;;;;;;5081927;28;20228;-75
2021/07/25 10:41:20;;;;;;;2.53;2.17;;;31.40;99.90;;;;;;5084855;28;20219;-75
2021/07/25 10:43:47;;;;;;;7.15;2.80;;;31.20;99.90;;;;;;5081439;28;20221;-75
2021/07/25 10:46:21;;;;;;;4.50;2.47;;;31.00;99.90;;;;;;5089134;28;20209;-74
2021/07/25 10:49:18;;;;;;;5.50;2.30;;;30.80;99.90;;;;;;5081777;28;20200;-75
2021/07/25 10:52:02;;;;;;;2.70;2.33;;;30.90;99.90;;;;;;5081026;28;20209;-75
2021/07/25 10:54:30;;;;;;;5.07;2.60;;;31.00;99.90;;;;;;5081686;28;20209;-75
2021/07/25 10:56:58;;;;;;;3.72;3.08;;;31.10;99.90;;;;;;5081884;28;20255;-75
2021/07/25 10:59:38;;;;;;;4.22;2.55;;;31.10;99.90;;;;;;5080780;28;20627;-75
2021/07/25 11:02:07;;;;;;;4.15;2.38;;;31.00;99.90;;;;;;5085822;28;20224;-75
2021/07/25 11:05:05;;;;;;;3.83;3.13;;;30.80;99.90;;;;;;5080820;28;20241;-75
2021/07/25 11:07:39;;;;;;;5.10;2.60;;;30.50;99.90;;;;;;5081154;28;20265;-75
2021/07/25 11:10:16;;;;;;;3.80;2.83;;;30.20;99.90;;;;;;5082009;28;20212;-75
2021/07/25 11:13:19;;;;;;;4.88;2.95;;;29.70;99.90;;;;;;5090716;28;20201;-75
2021/07/25 11:15:47;;;;;;;4.32;2.45;;;29.50;99.90;;;;;;5069553;28;20239;-75
2021/07/25 11:18:34;;;;;;;3.40;2.72;;;29.40;99.90;;;;;;5074936;28;20231;-75
2021/07/25 11:21:04;;;;;;;3.15;2.35;;;29.30;99.90;;;;;;5068560;28;20241;-75
2021/07/25 11:23:38;;;;;;;6.72;2.70;;;29.00;99.90;;;;;;5078030;28;20229;-75
2021/07/25 11:26:38;;;;;;;5.18;2.55;;;28.80;99.90;;;;;;5068358;28;20204;-75
2021/07/25 11:29:41;;;;;;;3.35;2.10;;;28.90;99.90;;;;;;5066314;28;20256;-75
2021/07/25 11:32:35;;;;;;;5.07;2.80;;;29.00;99.90;;;;;;5074488;28;20201;-74
2021/07/25 11:35:05;;;;;;;5.55;2.72;;;29.00;99.90;;;;;;5067579;28;20205;-75
2021/07/25 11:37:39;;;;;;;4.25;2.45;;;28.90;99.90;;;;;;5070819;28;20255;-74
2021/07/25 11:40:08;;;;;;;6.10;2.50;;;28.90;99.90;;;;;;5067982;28;20284;-75
2021/07/25 11:42:36;;;;;;;4.70;2.75;;;28.80;99.90;;;;;;5072325;28;20197;-75
2021/07/25 11:45:04;;;;;;;8.15;2.42;;;28.60;99.90;;;;;;5067520;28;20233;-74
2021/07/25 11:47:32;;;;;;;6.05;2.60;;;28.50;99.90;;;;;;5067390;28;20617;-75
2021/07/25 11:49:59;;;;;;;3.88;2.45;;;28.40;99.90;;;;;;5067433;28;20206;-74
2021/07/25 11:52:28;;;;;;;5.65;2.60;;;28.40;99.90;;;;;;5075681;28;20197;-75
2021/07/25 11:54:55;;;;;;;4.15;2.47;;;28.40;99.90;;;;;;5067063;28;20206;-74
2021/07/25 11:57:24;;;;;;;4.50;2.60;;;28.30;99.90;;;;;;5072690;28;20224;-75
2021/07/25 11:59:52;;;;;;;4.95;2.28;;;28.30;99.90;;;;;;5073515;28;20296;-75
2021/07/25 12:02:24;;;;;;;4.38;2.60;;;28.30;99.90;;;;;;5078694;28;20233;-74
2021/07/25 12:04:51;;;;;;;4.90;2.60;;;28.30;99.90;;;;;;5067306;28;20332;-74
2021/07/25 12:07:20;;;;;;;8.15;3.38;;;28.40;99.90;;;;;;5066502;28;20202;-75
2021/07/25 12:09:49;;;;;;;4.30;2.80;;;28.60;99.90;;;;;;5073623;28;20202;-74
2021/07/25 12:12:18;;;;;;;5.40;2.85;;;28.60;99.90;;;;;;5067007;28;20205;-75
2021/07/25 12:14:47;;;;;;;2.65;2.45;;;28.50;99.90;;;;;;5068557;28;20213;-74
2021/07/25 12:17:34;;;;;;;14.07;3.00;;;28.50;99.90;;;;;;5073585;28;20210;-74
2021/07/25 12:20:10;;;;;;;8.77;3.28;;;28.60;99.90;;;;;;5082522;28;20200;-75
2021/07/25 12:22:48;;;;;;;9.38;2.72;;;28.80;99.90;;;;;;5083171;28;20260;-74
2021/07/25 12:25:16;;;;;;;4.00;2.40;;;28.90;99.90;;;;;;5071384;28;20233;-75
2021/07/25 12:27:43;;;;;;;3.15;2.30;;;28.70;99.90;;;;;;5064585;28;20213;-74
2021/07/25 12:30:15;;;;;;;3.75;2.00;;;28.60;99.90;;;;;;5072358;28;20209;-74
2021/07/25 12:32:44;;;;;;;3.95;2.47;;;28.40;99.90;;;;;;5068857;28;20205;-74
2021/07/25 12:35:32;;;;;;;2.28;2.08;;;28.40;99.90;;;;;;5070994;28;20205;-73
2021/07/25 12:38:01;;;;;;;3.08;2.30;;;28.30;99.90;;;;;;5065777;28;20931;-74
2021/07/25 12:40:32;;;;;;;3.03;1.73;;;28.00;99.90;;;;;;5071253;28;20225;-74
2021/07/25 12:43:04;;;;;;;3.30;1.80;;;28.00;99.90;;;;;;5075064;28;20197;-74
2021/07/25 12:45:39;;;;;;;4.13;2.08;;;27.90;99.90;;;;;;5069941;28;20688;-73
2021/07/25 12:48:14;;;;;;;2.50;2.30;;;27.90;99.90;;;;;;5070814;28;20201;-74
2021/07/25 12:50:46;;;;;;;1.92;1.83;;;28.00;99.90;;;;;;5072644;28;20204;-73
2021/07/25 12:53:17;;;;;;;4.00;2.40;;;28.10;99.90;;;;;;5065883;28;20208;-73
2021/07/25 12:55:48;;;;;;;4.78;2.50;;;28.10;99.90;;;;;;5066292;28;20610;-73
2021/07/25 12:58:15;;;;;;;2.35;2.15;;;28.10;99.90;;;;;;5069989;28;20207;-74
2021/07/25 13:03:55;;;;;;;2.75;1.95;;;28.10;99.90;;;;;;5043874;28;20245;-74
2021/07/25 13:06:24;;;;;;;2.67;2.30;;;28.20;99.90;;;;;;5065006;28;20681;-73
2021/07/25 13:08:52;;;;;;;4.28;2.50;;;28.00;99.90;;;;;;5072942;28;20197;-73
2021/07/25 13:11:22;;;;;;;3.67;2.50;;;27.90;99.90;;;;;;5070404;28;20193;-73
2021/07/25 13:13:50;;;;;;;2.35;1.85;;;28.00;99.90;;;;;;5064891;28;20248;-75
2021/07/25 13:16:18;;;;;;;4.13;2.72;;;28.00;99.90;;;;;;5065589;28;20205;-75
2021/07/25 13:18:47;;;;;;;3.50;2.08;;;27.90;99.90;;;;;;5065281;28;20205;-74
2021/07/25 13:21:15;;;;;;;4.38;2.08;;;27.80;99.90;;;;;;5065163;28;20198;-75
2021/07/25 13:23:42;;;;;;;1.88;1.77;;;27.80;99.90;;;;;;5072338;28;20589;-75
2021/07/25 13:26:10;;;;;;;2.88;1.90;;;27.80;99.90;;;;;;5065039;28;20206;-74
2021/07/25 13:28:39;;;;;;;2.28;1.90;;;27.70;99.90;;;;;;5069121;28;20679;-74
2021/07/25 13:31:06;;;;;;;2.30;2.10;;;27.60;99.90;;;;;;5066352;28;20264;-74
2021/07/25 13:33:34;;;;;;;1.98;1.83;;;27.70;99.90;;;;;;5067630;28;20198;-74
2021/07/25 13:36:02;;;;;;;3.03;2.10;;;27.80;99.90;;;;;;5075447;28;20198;-74
2021/07/25 13:38:30;;;;;;;2.20;1.80;;;27.90;99.90;;;;;;5064807;28;20224;-75
2021/07/25 13:40:57;;;;;;;2.08;1.88;;;28.00;99.90;;;;;;5064907;28;20214;-74
2021/07/25 13:43:24;;;;;;;3.45;2.08;;;28.00;99.90;;;;;;5066426;28;20202;-74
2021/07/25 13:45:58;;;;;;;2.25;1.88;;;28.10;99.90;;;;;;5065033;28;20251;-74
2021/07/25 13:48:26;;;;;;;2.22;2.00;;;28.10;99.90;;;;;;5068647;28;20244;-74
2021/07/25 13:50:53;;;;;;;5.80;2.88;;;28.20;99.90;;;;;;5069792;28;20206;-75